sensor_id;sensor_type;location;lat;lon;timestamp;temperature;humidity
55083;DHT22;40978;52.850;6.506;2024-01-30T00:01:15;6.20;99.90
55083;DHT22;40978;52.850;6.506;2024-01-30T00:03:41;6.30;99.90
55083;DHT22;40978;52.850;6.506;2024-01-30T00:06:08;6.20;99.90
55083;DHT22;40978;52.850;6.506;2024-01-30T00:08:34;6.20;99.90
55083;DHT22;40978;52.850;6.506;2024-01-30T00:10:59;6.20;99.90
55083;DHT22;40978;52.850;6.506;2024-01-30T00:13:26;6.30;99.90
55083;DHT22;40978;52.850;6.506;2024-01-30T00:15:52;6.40;99.90
55083;DHT22;40978;52.850;6.506;2024-01-30T00:18:18;6.40;99.90
55083;DHT22;40978;52.850;6.506;2024-01-30T00:20:44;6.40;99.90
55083;DHT22;40978;52.850;6.506;2024-01-30T00:23:10;6.40;99.90
55083;DHT22;40978;52.850;6.506;2024-01-30T00:25:36;6.40;99.90
55083;DHT22;40978;52.850;6.506;2024-01-30T00:28:01;6.50;99.90
55083;DHT22;40978;52.850;6.506;2024-01-30T00:30:27;6.50;99.90
55083;DHT22;40978;52.850;6.506;2024-01-30T00:32:53;6.50;99.90
55083;DHT22;40978;52.850;6.506;2024-01-30T00:35:19;6.50;99.90
55083;DHT22;40978;52.850;6.506;2024-01-30T00:37:47;6.60;99.90
55083;DHT22;40978;52.850;6.506;2024-01-30T00:40:13;6.60;99.90
55083;DHT22;40978;52.850;6.506;2024-01-30T00:42:44;6.60;99.90
55083;DHT22;40978;52.850;6.506;2024-01-30T00:45:16;6.60;99.90
55083;DHT22;40978;52.850;6.506;2024-01-30T00:47:42;6.70;99.90
55083;DHT22;40978;52.850;6.506;2024-01-30T00:50:08;6.70;99.90
55083;DHT22;40978;52.850;6.506;2024-01-30T00:52:34;6.70;99.90
55083;DHT22;40978;52.850;6.506;2024-01-30T00:55:01;6.70;99.90
55083;DHT22;40978;52.850;6.506;2024-01-30T00:57:26;6.70;99.90
55083;DHT22;40978;52.850;6.506;2024-01-30T00:59:52;6.70;99.90
55083;DHT22;40978;52.850;6.506;2024-01-30T01:02:18;6.60;99.90
55083;DHT22;40978;52.850;6.506;2024-01-30T01:04:44;6.70;99.90
55083;DHT22;40978;52.850;6.506;2024-01-30T01:07:11;6.60;99.90
55083;DHT22;40978;52.850;6.506;2024-01-30T01:09:37;6.60;99.90
55083;DHT22;40978;52.850;6.506;2024-01-30T01:12:03;6.60;99.90
55083;DHT22;40978;52.850;6.506;2024-01-30T01:14:29;6.60;99.90
55083;DHT22;40978;52.850;6.506;2024-01-30T01:16:55;6.50;99.90
55083;DHT22;40978;52.850;6.506;2024-01-30T01:19:21;6.50;99.90
55083;DHT22;40978;52.850;6.506;2024-01-30T01:21:46;6.50;99.90
55083;DHT22;40978;52.850;6.506;2024-01-30T01:24:12;6.50;99.90
55083;DHT22;40978;52.850;6.506;2024-01-30T01:26:38;6.60;99.90
55083;DHT22;40978;52.850;6.506;2024-01-30T01:29:03;6.50;99.90
55083;DHT22;40978;52.850;6.506;2024-01-30T01:31:36;6.50;99.90
55083;DHT22;40978;52.850;6.506;2024-01-30T01:34:05;6.50;99.90
55083;DHT22;40978;52.850;6.506;2024-01-30T01:36:31;6.50;99.90
55083;DHT22;40978;52.850;6.506;2024-01-30T01:38:57;6.50;99.90
55083;DHT22;40978;52.850;6.506;2024-01-30T01:41:23;6.60;99.90
55083;DHT22;40978;52.850;6.506;2024-01-30T01:43:48;6.60;99.90
55083;DHT22;40978;52.850;6.506;2024-01-30T01:46:14;6.60;99.90
55083;DHT22;40978;52.850;6.506;2024-01-30T01:48:41;6.60;99.90
55083;DHT22;40978;52.850;6.506;2024-01-30T01:51:09;6.50;99.90
55083;DHT22;40978;52.850;6.506;2024-01-30T01:53:35;6.60;99.90
55083;DHT22;40978;52.850;6.506;2024-01-30T01:56:01;6.70;99.90
55083;DHT22;40978;52.850;6.506;2024-01-30T01:58:28;6.70;99.90
55083;DHT22;40978;52.850;6.506;2024-01-30T02:00:56;6.70;99.90
55083;DHT22;40978;52.850;6.506;2024-01-30T02:03:22;6.70;99.90
55083;DHT22;40978;52.850;6.506;2024-01-30T02:05:48;6.60;99.90
55083;DHT22;40978;52.850;6.506;2024-01-30T02:08:14;6.60;99.90
55083;DHT22;40978;52.850;6.506;2024-01-30T02:10:40;6.60;99.90
55083;DHT22;40978;52.850;6.506;2024-01-30T02:13:06;6.50;99.90
55083;DHT22;40978;52.850;6.506;2024-01-30T02:15:32;6.50;99.90
55083;DHT22;40978;52.850;6.506;2024-01-30T02:17:57;6.50;99.90
55083;DHT22;40978;52.850;6.506;2024-01-30T02:20:24;6.40;99.90
55083;DHT22;40978;52.850;6.506;2024-01-30T02:22:52;6.30;99.90
55083;DHT22;40978;52.850;6.506;2024-01-30T02:25:19;6.30;99.90
55083;DHT22;40978;52.850;6.506;2024-01-30T02:27:45;6.40;99.90
55083;DHT22;40978;52.850;6.506;2024-01-30T02:30:11;6.30;99.90
55083;DHT22;40978;52.850;6.506;2024-01-30T02:32:37;6.30;99.90
55083;DHT22;40978;52.850;6.506;2024-01-30T02:35:03;6.30;99.90
55083;DHT22;40978;52.850;6.506;2024-01-30T02:37:29;6.20;99.90
55083;DHT22;40978;52.850;6.506;2024-01-30T02:39:54;6.30;99.90
55083;DHT22;40978;52.850;6.506;2024-01-30T02:42:20;6.10;99.90
55083;DHT22;40978;52.850;6.506;2024-01-30T02:44:46;6.10;99.90
55083;DHT22;40978;52.850;6.506;2024-01-30T02:47:11;6.10;99.90
55083;DHT22;40978;52.850;6.506;2024-01-30T02:49:37;6.10;99.90
55083;DHT22;40978;52.850;6.506;2024-01-30T02:52:03;6.10;99.90
55083;DHT22;40978;52.850;6.506;2024-01-30T02:54:30;6.10;99.90
55083;DHT22;40978;52.850;6.506;2024-01-30T02:56:56;6.10;99.90
55083;DHT22;40978;52.850;6.506;2024-01-30T02:59:21;6.10;99.90
55083;DHT22;40978;52.850;6.506;2024-01-30T03:01:47;6.10;99.90
55083;DHT22;40978;52.850;6.506;2024-01-30T03:04:13;6.10;99.90
55083;DHT22;40978;52.850;6.506;2024-01-30T03:06:39;6.00;99.90
55083;DHT22;40978;52.850;6.506;2024-01-30T03:09:09;6.10;99.90
55083;DHT22;40978;52.850;6.506;2024-01-30T03:11:36;6.10;99.90
55083;DHT22;40978;52.850;6.506;2024-01-30T03:14:01;6.00;99.90
55083;DHT22;40978;52.850;6.506;2024-01-30T03:16:27;6.10;99.90
55083;DHT22;40978;52.850;6.506;2024-01-30T03:18:53;6.10;99.90
55083;DHT22;40978;52.850;6.506;2024-01-30T03:21:18;6.10;99.90
55083;DHT22;40978;52.850;6.506;2024-01-30T03:23:44;6.20;99.90
55083;DHT22;40978;52.850;6.506;2024-01-30T03:26:10;6.20;99.90
55083;DHT22;40978;52.850;6.506;2024-01-30T03:28:36;6.20;99.90
55083;DHT22;40978;52.850;6.506;2024-01-30T03:31:02;6.30;99.90
55083;DHT22;40978;52.850;6.506;2024-01-30T03:33:27;6.30;99.90
55083;DHT22;40978;52.850;6.506;2024-01-30T03:35:53;6.30;99.90
55083;DHT22;40978;52.850;6.506;2024-01-30T03:38:19;6.30;99.90
55083;DHT22;40978;52.850;6.506;2024-01-30T03:40:45;6.30;99.90
55083;DHT22;40978;52.850;6.506;2024-01-30T03:43:11;6.40;99.90
55083;DHT22;40978;52.850;6.506;2024-01-30T03:45:36;6.40;99.90
55083;DHT22;40978;52.850;6.506;2024-01-30T03:48:02;6.40;99.90
55083;DHT22;40978;52.850;6.506;2024-01-30T03:50:28;6.40;99.90
55083;DHT22;40978;52.850;6.506;2024-01-30T03:52:54;6.50;99.90
55083;DHT22;40978;52.850;6.506;2024-01-30T03:55:19;6.50;99.90
55083;DHT22;40978;52.850;6.506;2024-01-30T03:57:45;6.50;99.90
55083;DHT22;40978;52.850;6.506;2024-01-30T04:00:11;6.50;99.90
55083;DHT22;40978;52.850;6.506;2024-01-30T04:02:37;6.50;99.90
55083;DHT22;40978;52.850;6.506;2024-01-30T04:05:03;6.60;99.90
55083;DHT22;40978;52.850;6.506;2024-01-30T04:07:28;6.60;99.90
55083;DHT22;40978;52.850;6.506;2024-01-30T04:09:54;6.60;99.90
55083;DHT22;40978;52.850;6.506;2024-01-30T04:12:20;6.70;99.90
55083;DHT22;40978;52.850;6.506;2024-01-30T04:14:45;6.70;99.90
55083;DHT22;40978;52.850;6.506;2024-01-30T04:17:11;6.70;99.90
55083;DHT22;40978;52.850;6.506;2024-01-30T04:19:37;6.80;99.90
55083;DHT22;40978;52.850;6.506;2024-01-30T04:22:04;6.80;99.90
55083;DHT22;40978;52.850;6.506;2024-01-30T04:24:29;6.80;99.90
55083;DHT22;40978;52.850;6.506;2024-01-30T04:26:55;6.90;99.90
55083;DHT22;40978;52.850;6.506;2024-01-30T04:29:21;6.90;99.90
55083;DHT22;40978;52.850;6.506;2024-01-30T04:31:48;7.00;99.90
55083;DHT22;40978;52.850;6.506;2024-01-30T04:34:13;7.00;99.90
55083;DHT22;40978;52.850;6.506;2024-01-30T04:36:39;7.10;99.90
55083;DHT22;40978;52.850;6.506;2024-01-30T04:39:05;7.10;99.90
55083;DHT22;40978;52.850;6.506;2024-01-30T04:41:30;7.20;99.90
55083;DHT22;40978;52.850;6.506;2024-01-30T04:43:57;7.20;99.90
55083;DHT22;40978;52.850;6.506;2024-01-30T04:46:23;7.20;99.90
55083;DHT22;40978;52.850;6.506;2024-01-30T04:48:49;7.10;99.90
55083;DHT22;40978;52.850;6.506;2024-01-30T04:51:15;7.20;99.90
55083;DHT22;40978;52.850;6.506;2024-01-30T04:53:40;7.20;99.90
55083;DHT22;40978;52.850;6.506;2024-01-30T04:56:06;7.20;99.90
55083;DHT22;40978;52.850;6.506;2024-01-30T04:58:32;7.20;99.90
55083;DHT22;40978;52.850;6.506;2024-01-30T05:00:57;7.20;99.90
55083;DHT22;40978;52.850;6.506;2024-01-30T05:03:23;7.30;99.90
55083;DHT22;40978;52.850;6.506;2024-01-30T05:05:49;7.30;99.90
55083;DHT22;40978;52.850;6.506;2024-01-30T05:08:15;7.30;99.90
55083;DHT22;40978;52.850;6.506;2024-01-30T05:10:41;7.30;99.90
55083;DHT22;40978;52.850;6.506;2024-01-30T05:13:06;7.30;99.90
55083;DHT22;40978;52.850;6.506;2024-01-30T05:15:32;7.30;99.90
55083;DHT22;40978;52.850;6.506;2024-01-30T05:17:58;7.30;99.90
55083;DHT22;40978;52.850;6.506;2024-01-30T05:20:23;7.40;99.90
55083;DHT22;40978;52.850;6.506;2024-01-30T05:22:49;7.40;99.90
55083;DHT22;40978;52.850;6.506;2024-01-30T05:25:15;7.40;99.90
55083;DHT22;40978;52.850;6.506;2024-01-30T05:27:41;7.50;99.90
55083;DHT22;40978;52.850;6.506;2024-01-30T05:30:07;7.40;99.90
55083;DHT22;40978;52.850;6.506;2024-01-30T05:32:33;7.50;99.90
55083;DHT22;40978;52.850;6.506;2024-01-30T05:34:58;7.40;99.90
55083;DHT22;40978;52.850;6.506;2024-01-30T05:37:24;7.50;99.90
55083;DHT22;40978;52.850;6.506;2024-01-30T05:39:50;7.40;99.90
55083;DHT22;40978;52.850;6.506;2024-01-30T05:42:15;7.50;99.90
55083;DHT22;40978;52.850;6.506;2024-01-30T05:44:42;7.50;99.90
55083;DHT22;40978;52.850;6.506;2024-01-30T05:47:08;7.60;99.90
55083;DHT22;40978;52.850;6.506;2024-01-30T05:49:34;7.50;99.90
55083;DHT22;40978;52.850;6.506;2024-01-30T05:52:02;7.60;99.90
55083;DHT22;40978;52.850;6.506;2024-01-30T05:54:28;7.60;99.90
55083;DHT22;40978;52.850;6.506;2024-01-30T05:56:54;7.50;99.90
55083;DHT22;40978;52.850;6.506;2024-01-30T05:59:19;7.60;99.90
55083;DHT22;40978;52.850;6.506;2024-01-30T06:01:46;7.50;99.90
55083;DHT22;40978;52.850;6.506;2024-01-30T06:04:12;7.50;99.90
55083;DHT22;40978;52.850;6.506;2024-01-30T06:06:38;7.50;99.90
55083;DHT22;40978;52.850;6.506;2024-01-30T06:09:04;7.50;99.90
55083;DHT22;40978;52.850;6.506;2024-01-30T06:11:30;7.50;99.90
55083;DHT22;40978;52.850;6.506;2024-01-30T06:13:55;7.50;99.90
55083;DHT22;40978;52.850;6.506;2024-01-30T06:16:21;7.50;99.90
55083;DHT22;40978;52.850;6.506;2024-01-30T06:18:48;7.50;99.90
55083;DHT22;40978;52.850;6.506;2024-01-30T06:21:13;7.50;99.90
55083;DHT22;40978;52.850;6.506;2024-01-30T06:23:39;7.50;99.90
55083;DHT22;40978;52.850;6.506;2024-01-30T06:26:07;7.50;99.90
55083;DHT22;40978;52.850;6.506;2024-01-30T06:28:32;7.60;99.90
55083;DHT22;40978;52.850;6.506;2024-01-30T06:31:00;7.60;99.90
55083;DHT22;40978;52.850;6.506;2024-01-30T06:33:26;7.60;99.90
55083;DHT22;40978;52.850;6.506;2024-01-30T06:35:51;7.60;99.90
55083;DHT22;40978;52.850;6.506;2024-01-30T06:38:17;7.60;99.90
55083;DHT22;40978;52.850;6.506;2024-01-30T06:40:43;7.70;99.90
55083;DHT22;40978;52.850;6.506;2024-01-30T06:43:08;7.70;99.90
55083;DHT22;40978;52.850;6.506;2024-01-30T06:45:35;7.70;99.90
55083;DHT22;40978;52.850;6.506;2024-01-30T06:48:01;7.70;99.90
55083;DHT22;40978;52.850;6.506;2024-01-30T06:50:26;7.70;99.90
55083;DHT22;40978;52.850;6.506;2024-01-30T06:52:52;7.70;99.90
55083;DHT22;40978;52.850;6.506;2024-01-30T06:55:18;7.70;99.90
55083;DHT22;40978;52.850;6.506;2024-01-30T06:57:44;7.70;99.90
55083;DHT22;40978;52.850;6.506;2024-01-30T07:00:10;7.70;99.90
55083;DHT22;40978;52.850;6.506;2024-01-30T07:02:36;7.70;99.90
55083;DHT22;40978;52.850;6.506;2024-01-30T07:05:02;7.70;99.90
55083;DHT22;40978;52.850;6.506;2024-01-30T07:07:28;7.80;99.90
55083;DHT22;40978;52.850;6.506;2024-01-30T07:09:54;7.80;99.90
55083;DHT22;40978;52.850;6.506;2024-01-30T07:12:25;7.80;99.90
55083;DHT22;40978;52.850;6.506;2024-01-30T07:14:52;7.80;99.90
55083;DHT22;40978;52.850;6.506;2024-01-30T07:17:17;7.80;99.90
55083;DHT22;40978;52.850;6.506;2024-01-30T07:19:43;7.80;99.90
55083;DHT22;40978;52.850;6.506;2024-01-30T07:22:09;7.90;99.90
55083;DHT22;40978;52.850;6.506;2024-01-30T07:24:35;7.90;99.90
55083;DHT22;40978;52.850;6.506;2024-01-30T07:27:01;7.90;99.90
55083;DHT22;40978;52.850;6.506;2024-01-30T07:29:27;7.90;99.90
55083;DHT22;40978;52.850;6.506;2024-01-30T07:31:53;8.00;99.90
55083;DHT22;40978;52.850;6.506;2024-01-30T07:34:18;8.00;99.90
55083;DHT22;40978;52.850;6.506;2024-01-30T07:36:44;8.00;99.90
55083;DHT22;40978;52.850;6.506;2024-01-30T07:39:10;8.00;99.90
55083;DHT22;40978;52.850;6.506;2024-01-30T07:41:36;8.10;99.90
55083;DHT22;40978;52.850;6.506;2024-01-30T07:44:02;8.10;99.90
55083;DHT22;40978;52.850;6.506;2024-01-30T07:46:28;8.10;99.90
55083;DHT22;40978;52.850;6.506;2024-01-30T07:48:54;8.10;99.90
55083;DHT22;40978;52.850;6.506;2024-01-30T07:51:21;8.20;99.90
55083;DHT22;40978;52.850;6.506;2024-01-30T07:53:53;8.20;99.90
55083;DHT22;40978;52.850;6.506;2024-01-30T07:56:18;8.20;99.90
55083;DHT22;40978;52.850;6.506;2024-01-30T07:58:44;8.20;99.90
55083;DHT22;40978;52.850;6.506;2024-01-30T08:01:10;8.20;99.90
55083;DHT22;40978;52.850;6.506;2024-01-30T08:03:36;8.20;99.90
55083;DHT22;40978;52.850;6.506;2024-01-30T08:06:02;8.30;99.90
55083;DHT22;40978;52.850;6.506;2024-01-30T08:08:28;8.30;99.90
55083;DHT22;40978;52.850;6.506;2024-01-30T08:10:54;8.30;99.90
55083;DHT22;40978;52.850;6.506;2024-01-30T08:13:20;8.40;99.90
55083;DHT22;40978;52.850;6.506;2024-01-30T08:15:45;8.40;99.90
55083;DHT22;40978;52.850;6.506;2024-01-30T08:18:11;8.40;99.90
55083;DHT22;40978;52.850;6.506;2024-01-30T08:20:37;8.50;99.90
55083;DHT22;40978;52.850;6.506;2024-01-30T08:23:02;8.50;99.90
55083;DHT22;40978;52.850;6.506;2024-01-30T08:25:28;8.60;99.90
55083;DHT22;40978;52.850;6.506;2024-01-30T08:27:54;8.60;99.90
55083;DHT22;40978;52.850;6.506;2024-01-30T08:30:19;8.60;99.90
55083;DHT22;40978;52.850;6.506;2024-01-30T08:32:45;8.70;99.90
55083;DHT22;40978;52.850;6.506;2024-01-30T08:35:11;8.70;99.90
55083;DHT22;40978;52.850;6.506;2024-01-30T08:37:39;8.70;99.90
55083;DHT22;40978;52.850;6.506;2024-01-30T08:40:05;8.80;99.90
55083;DHT22;40978;52.850;6.506;2024-01-30T08:42:31;8.80;99.90
55083;DHT22;40978;52.850;6.506;2024-01-30T08:44:57;8.90;99.90
55083;DHT22;40978;52.850;6.506;2024-01-30T08:47:22;8.90;99.90
55083;DHT22;40978;52.850;6.506;2024-01-30T08:49:48;9.00;99.90
55083;DHT22;40978;52.850;6.506;2024-01-30T08:52:14;9.00;99.90
55083;DHT22;40978;52.850;6.506;2024-01-30T08:54:40;9.00;99.90
55083;DHT22;40978;52.850;6.506;2024-01-30T08:57:05;9.10;99.90
55083;DHT22;40978;52.850;6.506;2024-01-30T08:59:31;9.10;99.90
55083;DHT22;40978;52.850;6.506;2024-01-30T09:01:57;9.20;99.90
55083;DHT22;40978;52.850;6.506;2024-01-30T09:04:24;9.20;99.90
55083;DHT22;40978;52.850;6.506;2024-01-30T09:06:49;9.30;99.90
55083;DHT22;40978;52.850;6.506;2024-01-30T09:09:16;9.30;99.90
55083;DHT22;40978;52.850;6.506;2024-01-30T09:11:41;9.40;99.90
55083;DHT22;40978;52.850;6.506;2024-01-30T09:14:07;9.40;99.90
55083;DHT22;40978;52.850;6.506;2024-01-30T09:16:33;9.50;99.90
55083;DHT22;40978;52.850;6.506;2024-01-30T09:18:59;9.50;99.90
55083;DHT22;40978;52.850;6.506;2024-01-30T09:21:25;9.50;99.90
55083;DHT22;40978;52.850;6.506;2024-01-30T09:23:54;9.50;99.90
55083;DHT22;40978;52.850;6.506;2024-01-30T09:26:19;9.50;99.90
55083;DHT22;40978;52.850;6.506;2024-01-30T09:28:45;9.50;99.90
55083;DHT22;40978;52.850;6.506;2024-01-30T09:31:11;9.50;99.90
55083;DHT22;40978;52.850;6.506;2024-01-30T09:33:38;9.50;99.90
55083;DHT22;40978;52.850;6.506;2024-01-30T09:36:05;9.60;99.90
55083;DHT22;40978;52.850;6.506;2024-01-30T09:38:31;9.70;99.90
55083;DHT22;40978;52.850;6.506;2024-01-30T09:41:03;9.60;99.90
55083;DHT22;40978;52.850;6.506;2024-01-30T09:43:34;9.70;99.90
55083;DHT22;40978;52.850;6.506;2024-01-30T09:46:02;9.80;99.90
55083;DHT22;40978;52.850;6.506;2024-01-30T09:48:30;9.90;99.90
55083;DHT22;40978;52.850;6.506;2024-01-30T09:50:57;9.90;99.90
55083;DHT22;40978;52.850;6.506;2024-01-30T09:53:23;10.00;99.90
55083;DHT22;40978;52.850;6.506;2024-01-30T09:55:50;10.10;99.90
55083;DHT22;40978;52.850;6.506;2024-01-30T09:58:16;10.20;99.90
55083;DHT22;40978;52.850;6.506;2024-01-30T10:00:42;10.20;99.90
55083;DHT22;40978;52.850;6.506;2024-01-30T10:03:08;10.20;99.90
55083;DHT22;40978;52.850;6.506;2024-01-30T10:05:35;10.30;99.90
55083;DHT22;40978;52.850;6.506;2024-01-30T10:08:06;10.30;99.90
55083;DHT22;40978;52.850;6.506;2024-01-30T10:10:34;10.30;99.90
55083;DHT22;40978;52.850;6.506;2024-01-30T10:13:00;10.30;99.90
55083;DHT22;40978;52.850;6.506;2024-01-30T10:15:28;10.40;99.90
55083;DHT22;40978;52.850;6.506;2024-01-30T10:17:54;10.50;99.90
55083;DHT22;40978;52.850;6.506;2024-01-30T10:20:19;10.50;99.90
55083;DHT22;40978;52.850;6.506;2024-01-30T10:22:48;10.60;99.90
55083;DHT22;40978;52.850;6.506;2024-01-30T10:25:15;10.70;99.90
55083;DHT22;40978;52.850;6.506;2024-01-30T10:27:41;10.80;99.90
55083;DHT22;40978;52.850;6.506;2024-01-30T10:30:07;10.80;99.90
55083;DHT22;40978;52.850;6.506;2024-01-30T10:32:33;10.90;99.90
55083;DHT22;40978;52.850;6.506;2024-01-30T10:34:59;11.00;99.90
55083;DHT22;40978;52.850;6.506;2024-01-30T10:37:25;10.90;99.90
55083;DHT22;40978;52.850;6.506;2024-01-30T10:39:53;11.00;99.90
55083;DHT22;40978;52.850;6.506;2024-01-30T10:42:25;11.10;99.90
55083;DHT22;40978;52.850;6.506;2024-01-30T10:47:28;11.10;99.90
55083;DHT22;40978;52.850;6.506;2024-01-30T10:49:55;11.10;99.90
55083;DHT22;40978;52.850;6.506;2024-01-30T10:52:23;11.10;99.90
55083;DHT22;40978;52.850;6.506;2024-01-30T10:54:50;11.10;99.90
55083;DHT22;40978;52.850;6.506;2024-01-30T10:57:17;11.10;99.90
55083;DHT22;40978;52.850;6.506;2024-01-30T10:59:44;11.10;99.90
55083;DHT22;40978;52.850;6.506;2024-01-30T11:02:10;11.10;99.90
55083;DHT22;40978;52.850;6.506;2024-01-30T11:04:42;11.10;99.90
55083;DHT22;40978;52.850;6.506;2024-01-30T11:07:16;11.10;99.90
55083;DHT22;40978;52.850;6.506;2024-01-30T11:09:49;11.10;99.90
55083;DHT22;40978;52.850;6.506;2024-01-30T11:12:15;11.10;99.90
55083;DHT22;40978;52.850;6.506;2024-01-30T11:14:41;11.20;99.90
55083;DHT22;40978;52.850;6.506;2024-01-30T11:17:06;11.20;99.90
55083;DHT22;40978;52.850;6.506;2024-01-30T11:19:35;11.30;99.90
55083;DHT22;40978;52.850;6.506;2024-01-30T11:22:01;11.30;99.90
55083;DHT22;40978;52.850;6.506;2024-01-30T11:24:27;11.30;99.90
55083;DHT22;40978;52.850;6.506;2024-01-30T11:26:56;11.30;99.90
55083;DHT22;40978;52.850;6.506;2024-01-30T11:29:27;11.40;99.90
55083;DHT22;40978;52.850;6.506;2024-01-30T11:31:54;11.40;99.90
55083;DHT22;40978;52.850;6.506;2024-01-30T11:34:21;11.40;99.90
55083;DHT22;40978;52.850;6.506;2024-01-30T11:36:56;11.40;99.90
55083;DHT22;40978;52.850;6.506;2024-01-30T11:39:34;11.40;99.90
55083;DHT22;40978;52.850;6.506;2024-01-30T11:42:01;11.40;99.90
55083;DHT22;40978;52.850;6.506;2024-01-30T11:44:30;11.50;99.90
55083;DHT22;40978;52.850;6.506;2024-01-30T11:46:56;11.50;99.90
55083;DHT22;40978;52.850;6.506;2024-01-30T11:49:23;11.60;99.90
55083;DHT22;40978;52.850;6.506;2024-01-30T11:51:49;11.70;99.90
55083;DHT22;40978;52.850;6.506;2024-01-30T11:54:16;11.70;99.90
55083;DHT22;40978;52.850;6.506;2024-01-30T11:56:42;11.80;99.90
55083;DHT22;40978;52.850;6.506;2024-01-30T11:59:08;11.80;99.90
55083;DHT22;40978;52.850;6.506;2024-01-30T12:01:34;11.90;99.90
55083;DHT22;40978;52.850;6.506;2024-01-30T12:04:00;12.00;99.90
55083;DHT22;40978;52.850;6.506;2024-01-30T12:06:26;12.00;99.90
55083;DHT22;40978;52.850;6.506;2024-01-30T12:08:59;11.90;99.90
55083;DHT22;40978;52.850;6.506;2024-01-30T12:11:26;11.90;99.90
55083;DHT22;40978;52.850;6.506;2024-01-30T12:13:52;11.80;99.90
55083;DHT22;40978;52.850;6.506;2024-01-30T12:16:19;11.70;99.90
55083;DHT22;40978;52.850;6.506;2024-01-30T12:18:44;11.70;99.90
55083;DHT22;40978;52.850;6.506;2024-01-30T12:21:10;11.60;99.90
55083;DHT22;40978;52.850;6.506;2024-01-30T12:23:36;11.50;99.90
55083;DHT22;40978;52.850;6.506;2024-01-30T12:26:03;11.50;99.90
55083;DHT22;40978;52.850;6.506;2024-01-30T12:28:33;11.30;99.90
55083;DHT22;40978;52.850;6.506;2024-01-30T12:31:03;11.30;99.90
55083;DHT22;40978;52.850;6.506;2024-01-30T12:33:29;11.20;99.90
55083;DHT22;40978;52.850;6.506;2024-01-30T12:35:56;11.30;99.90
55083;DHT22;40978;52.850;6.506;2024-01-30T12:38:25;11.30;99.90
55083;DHT22;40978;52.850;6.506;2024-01-30T12:40:59;11.20;99.90
55083;DHT22;40978;52.850;6.506;2024-01-30T12:43:25;11.20;99.90
55083;DHT22;40978;52.850;6.506;2024-01-30T12:45:52;11.10;99.90
55083;DHT22;40978;52.850;6.506;2024-01-30T12:48:18;11.10;99.90
55083;DHT22;40978;52.850;6.506;2024-01-30T12:50:44;11.00;99.90
55083;DHT22;40978;52.850;6.506;2024-01-30T12:53:10;11.00;99.90
55083;DHT22;40978;52.850;6.506;2024-01-30T12:55:35;11.00;99.90
55083;DHT22;40978;52.850;6.506;2024-01-30T12:58:01;11.00;99.90
55083;DHT22;40978;52.850;6.506;2024-01-30T13:00:27;11.00;99.90
55083;DHT22;40978;52.850;6.506;2024-01-30T13:02:53;11.00;99.90
55083;DHT22;40978;52.850;6.506;2024-01-30T13:05:19;11.00;99.90
55083;DHT22;40978;52.850;6.506;2024-01-30T13:07:44;10.90;99.90
55083;DHT22;40978;52.850;6.506;2024-01-30T13:10:10;10.90;99.90
55083;DHT22;40978;52.850;6.506;2024-01-30T13:12:36;10.90;99.90
55083;DHT22;40978;52.850;6.506;2024-01-30T13:15:04;10.80;99.90
55083;DHT22;40978;52.850;6.506;2024-01-30T13:17:31;10.80;99.90
55083;DHT22;40978;52.850;6.506;2024-01-30T13:19:57;10.70;99.90
55083;DHT22;40978;52.850;6.506;2024-01-30T13:22:23;10.70;99.90
55083;DHT22;40978;52.850;6.506;2024-01-30T13:24:50;10.70;99.90
55083;DHT22;40978;52.850;6.506;2024-01-30T13:27:16;10.70;99.90
55083;DHT22;40978;52.850;6.506;2024-01-30T13:29:42;10.70;99.90
55083;DHT22;40978;52.850;6.506;2024-01-30T13:32:07;10.60;99.90
55083;DHT22;40978;52.850;6.506;2024-01-30T13:34:33;10.60;99.90
55083;DHT22;40978;52.850;6.506;2024-01-30T13:36:59;10.50;99.90
55083;DHT22;40978;52.850;6.506;2024-01-30T13:39:25;10.50;99.90
55083;DHT22;40978;52.850;6.506;2024-01-30T13:41:51;10.50;99.90
55083;DHT22;40978;52.850;6.506;2024-01-30T13:44:17;10.50;99.90
55083;DHT22;40978;52.850;6.506;2024-01-30T13:46:43;10.50;99.90
55083;DHT22;40978;52.850;6.506;2024-01-30T13:49:09;10.50;99.90
55083;DHT22;40978;52.850;6.506;2024-01-30T13:51:35;10.70;99.90
55083;DHT22;40978;52.850;6.506;2024-01-30T13:54:00;10.90;99.90
55083;DHT22;40978;52.850;6.506;2024-01-30T13:56:27;10.90;99.90
55083;DHT22;40978;52.850;6.506;2024-01-30T13:58:52;11.00;99.90
55083;DHT22;40978;52.850;6.506;2024-01-30T14:01:18;10.90;99.90
55083;DHT22;40978;52.850;6.506;2024-01-30T14:03:44;10.80;99.90
55083;DHT22;40978;52.850;6.506;2024-01-30T14:06:11;10.70;99.90
55083;DHT22;40978;52.850;6.506;2024-01-30T14:08:37;10.70;99.90
55083;DHT22;40978;52.850;6.506;2024-01-30T14:11:03;10.70;99.90
55083;DHT22;40978;52.850;6.506;2024-01-30T14:13:29;10.70;99.90
55083;DHT22;40978;52.850;6.506;2024-01-30T14:15:56;10.60;99.90
55083;DHT22;40978;52.850;6.506;2024-01-30T14:18:22;10.60;99.90
55083;DHT22;40978;52.850;6.506;2024-01-30T14:20:48;10.60;99.90
55083;DHT22;40978;52.850;6.506;2024-01-30T14:23:17;10.50;99.90
55083;DHT22;40978;52.850;6.506;2024-01-30T14:25:43;10.50;99.90
55083;DHT22;40978;52.850;6.506;2024-01-30T14:28:10;10.50;99.90
55083;DHT22;40978;52.850;6.506;2024-01-30T14:30:35;10.40;99.90
55083;DHT22;40978;52.850;6.506;2024-01-30T14:33:01;10.30;99.90
55083;DHT22;40978;52.850;6.506;2024-01-30T14:35:27;10.30;99.90
55083;DHT22;40978;52.850;6.506;2024-01-30T14:37:53;10.30;99.90
55083;DHT22;40978;52.850;6.506;2024-01-30T14:40:19;10.20;99.90
55083;DHT22;40978;52.850;6.506;2024-01-30T14:42:45;10.20;99.90
55083;DHT22;40978;52.850;6.506;2024-01-30T14:45:11;10.10;99.90
55083;DHT22;40978;52.850;6.506;2024-01-30T14:47:37;10.00;99.90
55083;DHT22;40978;52.850;6.506;2024-01-30T14:50:04;10.00;99.90
55083;DHT22;40978;52.850;6.506;2024-01-30T14:52:31;10.00;99.90
55083;DHT22;40978;52.850;6.506;2024-01-30T14:54:57;10.00;99.90
55083;DHT22;40978;52.850;6.506;2024-01-30T14:57:24;10.00;99.90
55083;DHT22;40978;52.850;6.506;2024-01-30T14:59:50;9.90;99.90
55083;DHT22;40978;52.850;6.506;2024-01-30T15:02:16;10.00;99.90
55083;DHT22;40978;52.850;6.506;2024-01-30T15:04:41;10.00;99.90
55083;DHT22;40978;52.850;6.506;2024-01-30T15:07:07;9.90;99.90
55083;DHT22;40978;52.850;6.506;2024-01-30T15:09:33;9.80;99.90
55083;DHT22;40978;52.850;6.506;2024-01-30T15:12:00;9.80;99.90
55083;DHT22;40978;52.850;6.506;2024-01-30T15:14:25;9.80;99.90
55083;DHT22;40978;52.850;6.506;2024-01-30T15:16:51;9.70;99.90
55083;DHT22;40978;52.850;6.506;2024-01-30T15:19:17;9.70;99.90
55083;DHT22;40978;52.850;6.506;2024-01-30T15:21:42;9.60;99.90
55083;DHT22;40978;52.850;6.506;2024-01-30T15:24:08;9.60;99.90
55083;DHT22;40978;52.850;6.506;2024-01-30T15:26:34;9.50;99.90
55083;DHT22;40978;52.850;6.506;2024-01-30T15:29:00;9.40;99.90
55083;DHT22;40978;52.850;6.506;2024-01-30T15:31:25;9.40;99.90
55083;DHT22;40978;52.850;6.506;2024-01-30T15:33:51;9.30;99.90
55083;DHT22;40978;52.850;6.506;2024-01-30T15:36:17;9.30;99.90